Time;durP1;ratioP1;P1;durP2;ratioP2;P2;SDS_P1;SDS_P2;PMS_P1;PMS_P2;Temp;Humidity;BMP_temperature;BMP_pressure;BME280_temperature;BME280_humidity;BME280_pressure;Samples;Min_cycle;Max_cycle;Signal;HPM_P1;HPM_P2
2021/11/25 00:01:11;;;;;;;16.80;9.02;;;;;;;0.88;89.53;101191.06;5034155;28;20041;-69
2021/11/25 00:03:36;;;;;;;14.98;8.90;;;;;;;0.89;89.85;101183.34;5009751;28;20041;-69
2021/11/25 00:06:02;;;;;;;15.07;9.43;;;;;;;0.92;89.97;101182.34;5034075;28;20024;-69
2021/11/25 00:08:27;;;;;;;15.55;9.10;;;;;;;0.92;90.16;101179.78;5034157;28;20387;-69
2021/11/25 00:10:53;;;;;;;18.80;10.00;;;;;;;0.89;90.27;101167.19;5027805;28;20041;-69
2021/11/25 00:13:19;;;;;;;15.07;10.05;;;;;;;0.88;90.39;101173.19;5010914;28;20028;-69
2021/11/25 00:15:44;;;;;;;16.55;9.93;;;;;;;0.88;90.77;101166.34;5028978;28;20033;-69
2021/11/25 00:18:10;;;;;;;16.25;9.75;;;;;;;0.89;90.55;101162.91;5020374;28;20029;-69
2021/11/25 00:20:35;;;;;;;16.92;9.90;;;;;;;0.86;90.65;101167.34;5035908;28;20097;-69
2021/11/25 00:23:01;;;;;;;16.67;9.23;;;;;;;0.85;90.31;101164.00;5033086;28;20074;-69
2021/11/25 00:25:27;;;;;;;17.77;9.88;;;;;;;0.80;90.74;101165.97;5029842;28;20101;-70
2021/11/25 00:27:53;;;;;;;17.45;10.45;;;;;;;0.75;90.79;101163.66;5031644;28;20462;-69
2021/11/25 00:30:19;;;;;;;19.08;10.48;;;;;;;0.73;90.99;101160.34;5012304;28;20037;-70
2021/11/25 00:32:44;;;;;;;15.02;9.50;;;;;;;0.72;91.23;101155.34;5032967;28;20215;-69
2021/11/25 00:35:11;;;;;;;19.00;10.32;;;;;;;0.73;91.21;101155.25;5011156;28;20034;-69
2021/11/25 00:37:38;;;;;;;16.38;10.07;;;;;;;0.73;91.29;101144.22;5039422;28;20037;-70
2021/11/25 00:40:07;;;;;;;17.13;10.57;;;;;;;0.70;91.61;101146.97;5032599;28;20112;-69
2021/11/25 00:42:33;;;;;;;19.08;10.50;;;;;;;0.69;91.66;101135.91;5033820;28;20032;-69
2021/11/25 00:44:58;;;;;;;18.17;11.43;;;;;;;0.68;91.56;101134.28;5024908;28;20037;-70
2021/11/25 00:47:24;;;;;;;19.10;10.05;;;;;;;0.67;91.73;101119.84;5030386;28;20044;-69
2021/11/25 00:49:49;;;;;;;17.70;10.25;;;;;;;0.68;91.61;101126.63;5028327;28;20029;-69
2021/11/25 00:52:15;;;;;;;17.58;9.95;;;;;;;0.70;91.92;101134.19;5031587;28;20037;-69
2021/11/25 00:54:41;;;;;;;15.20;9.07;;;;;;;0.69;91.33;101135.09;5030300;28;20034;-70
2021/11/25 00:57:06;;;;;;;16.92;9.75;;;;;;;0.69;91.68;101124.88;5032039;28;20043;-69
2021/11/25 00:59:33;;;;;;;16.92;9.85;;;;;;;0.66;91.52;101125.03;5035681;28;20065;-69
2021/11/25 01:01:58;;;;;;;17.00;9.10;;;;;;;0.65;91.56;101114.00;5032803;28;20071;-69
2021/11/25 01:04:24;;;;;;;17.80;10.50;;;;;;;0.64;91.28;101116.63;5030377;28;20025;-69
2021/11/25 01:06:50;;;;;;;17.13;10.23;;;;;;;0.61;90.83;101115.09;5025960;28;20474;-69
2021/11/25 01:09:16;;;;;;;19.48;9.73;;;;;;;0.60;91.20;101121.09;5011193;28;20602;-69
2021/11/25 01:11:43;;;;;;;18.00;10.43;;;;;;;0.55;91.08;101123.91;5032756;28;20032;-70
2021/11/25 01:14:09;;;;;;;17.92;10.20;;;;;;;0.54;90.98;101122.25;5011068;28;20107;-69
2021/11/25 01:16:35;;;;;;;17.42;9.88;;;;;;;0.53;91.03;101118.06;5029815;28;20025;-69
2021/11/25 01:19:00;;;;;;;21.05;10.73;;;;;;;0.54;91.08;101121.44;5028798;28;20034;-69
2021/11/25 01:21:26;;;;;;;18.88;10.88;;;;;;;0.55;91.36;101118.81;5025203;28;20017;-69
2021/11/25 01:23:52;;;;;;;17.50;10.43;;;;;;;0.53;91.30;101125.72;5011767;28;20108;-70
2021/11/25 01:26:17;;;;;;;17.55;10.00;;;;;;;0.52;91.40;101120.69;5028544;28;20096;-69
2021/11/25 01:28:43;;;;;;;16.15;10.30;;;;;;;0.52;91.60;101128.34;5030392;28;20099;-69
2021/11/25 01:31:09;;;;;;;18.52;10.90;;;;;;;0.53;91.84;101130.00;5033017;28;20515;-70
2021/11/25 01:33:34;;;;;;;18.38;10.00;;;;;;;0.53;92.19;101130.00;5012088;28;20025;-70
2021/11/25 01:36:00;;;;;;;20.05;11.15;;;;;;;0.52;92.06;101123.25;5026171;28;20360;-69
2021/11/25 01:38:27;;;;;;;16.17;10.38;;;;;;;0.53;92.04;101117.25;5034614;28;20059;-69
2021/11/25 01:40:54;;;;;;;16.75;10.20;;;;;;;0.55;92.16;101123.09;5031570;28;20113;-69
2021/11/25 01:43:22;;;;;;;17.73;10.00;;;;;;;0.56;92.49;101129.81;5031074;28;20025;-70
2021/11/25 01:45:49;;;;;;;15.60;10.18;;;;;;;0.56;92.74;101122.97;5029236;28;20081;-69
2021/11/25 01:48:16;;;;;;;19.05;9.43;;;;;;;0.57;92.83;101129.75;5028975;28;20030;-69
2021/11/25 01:50:44;;;;;;;17.95;10.82;;;;;;;0.58;93.22;101128.00;5024078;28;20061;-69
2021/11/25 01:53:11;;;;;;;17.23;10.43;;;;;;;0.60;92.82;101115.16;5008620;28;20021;-69
2021/11/25 01:55:36;;;;;;;18.67;10.38;;;;;;;0.60;93.19;101112.63;5024809;28;20316;-69
2021/11/25 01:58:02;;;;;;;21.08;11.20;;;;;;;0.61;93.62;101109.97;5032396;28;20541;-69
2021/11/25 02:00:36;;;;;;;20.67;11.48;;;;;;;0.63;93.40;101105.63;5027802;28;20018;-69
2021/11/25 02:03:04;;;;;;;17.95;10.57;;;;;;;0.64;93.54;101112.38;5027234;28;20491;-69
2021/11/25 02:05:30;;;;;;;18.65;10.38;;;;;;;0.62;93.86;101098.84;5015521;28;20033;-70
2021/11/25 02:07:56;;;;;;;26.85;10.73;;;;;;;0.61;94.27;101104.06;5033126;28;20406;-69
2021/11/25 02:10:23;;;;;;;19.10;10.07;;;;;;;0.58;94.02;101103.31;5013858;28;20029;-70
2021/11/25 02:12:48;;;;;;;16.42;9.80;;;;;;;0.57;93.95;101100.84;5012259;28;20088;-69
2021/11/25 02:15:15;;;;;;;17.77;10.18;;;;;;;0.57;93.82;101095.75;5027156;28;20324;-70
2021/11/25 02:17:41;;;;;;;21.88;11.63;;;;;;;0.50;94.33;101097.81;5033548;28;20040;-69
2021/11/25 02:20:09;;;;;;;18.63;10.38;;;;;;;0.49;94.14;101091.06;5025963;28;20095;-69
2021/11/25 02:22:36;;;;;;;16.45;10.30;;;;;;;0.50;94.29;101089.34;5025286;28;20030;-70
2021/11/25 02:25:01;;;;;;;18.17;11.13;;;;;;;0.53;94.24;101077.22;5024249;28;20386;-69
2021/11/25 02:27:27;;;;;;;16.55;10.70;;;;;;;0.54;94.41;101070.38;5030439;28;20030;-69
2021/11/25 02:29:53;;;;;;;21.13;11.18;;;;;;;0.54;94.39;101065.28;5027993;28;20037;-70
2021/11/25 02:32:40;;;;;;;17.77;10.40;;;;;;;0.55;94.88;101075.41;5023040;28;20030;-69
2021/11/25 02:35:12;;;;;;;19.40;11.43;;;;;;;0.55;94.73;101077.97;5022690;28;20037;-69
2021/11/25 02:37:37;;;;;;;19.38;10.90;;;;;;;0.58;94.77;101077.81;5025773;28;20131;-69
2021/11/25 02:40:15;;;;;;;23.55;12.07;;;;;;;0.61;94.87;101073.44;5026912;28;20104;-69
2021/11/25 02:42:41;;;;;;;21.83;11.07;;;;;;;0.63;94.70;101076.72;5028821;28;20052;-70
2021/11/25 02:45:06;;;;;;;21.98;11.75;;;;;;;0.66;95.09;101072.28;5026496;28;20032;-70
2021/11/25 02:47:32;;;;;;;19.98;11.32;;;;;;;0.67;94.70;101071.34;5038904;28;20033;-70
2021/11/25 02:49:57;;;;;;;24.45;11.95;;;;;;;0.72;95.21;101083.88;5027168;28;20018;-69
2021/11/25 02:52:27;;;;;;;19.83;10.75;;;;;;;0.74;95.53;101077.75;5013011;28;20033;-69
2021/11/25 02:54:52;;;;;;;22.90;11.77;;;;;;;0.78;95.06;101076.69;5014418;28;20025;-69
2021/11/25 02:57:18;;;;;;;20.90;11.40;;;;;;;0.81;95.31;101068.03;5031498;28;20506;-69
2021/11/25 02:59:43;;;;;;;20.45;12.05;;;;;;;0.84;95.39;101070.41;5034082;28;20037;-69
2021/11/25 03:02:09;;;;;;;20.70;11.23;;;;;;;0.86;95.39;101071.13;5018112;28;20037;-69
2021/11/25 03:04:35;;;;;;;25.27;13.95;;;;;;;0.87;95.53;101072.81;5028373;28;20034;-69
2021/11/25 03:07:00;;;;;;;23.45;12.50;;;;;;;0.87;95.56;101061.78;5033166;28;20084;-69
2021/11/25 03:09:26;;;;;;;21.70;12.80;;;;;;;0.88;95.03;101053.19;5043336;28;20484;-69
2021/11/25 03:11:53;;;;;;;20.10;12.00;;;;;;;0.87;95.16;101038.78;5040035;28;20373;-69
2021/11/25 03:14:19;;;;;;;21.50;11.15;;;;;;;0.86;95.23;101040.50;5038104;28;20041;-69
2021/11/25 03:16:45;;;;;;;22.17;11.60;;;;;;;0.87;95.41;101046.44;5042020;28;20029;-69
2021/11/25 03:19:12;;;;;;;18.42;10.82;;;;;;;0.86;95.24;101039.69;5029417;28;20659;-69
2021/11/25 03:21:38;;;;;;;20.83;11.88;;;;;;;0.88;95.33;101035.31;5033803;28;20103;-69
2021/11/25 03:24:04;;;;;;;24.10;12.63;;;;;;;0.93;95.24;101046.09;5035396;28;20041;-69
2021/11/25 03:26:30;;;;;;;20.58;11.82;;;;;;;0.93;95.15;101038.44;5016207;28;20037;-70
2021/11/25 03:28:59;;;;;;;20.83;11.60;;;;;;;0.95;94.97;101042.53;5017459;28;20139;-69
2021/11/25 03:31:28;;;;;;;20.77;12.10;;;;;;;0.98;95.11;101046.66;5012117;28;20025;-69
2021/11/25 03:33:55;;;;;;;23.25;12.43;;;;;;;0.99;95.59;101040.63;5035477;28;20033;-70
2021/11/25 03:36:20;;;;;;;22.85;13.27;;;;;;;1.01;95.31;101035.44;5008890;28;20082;-70
2021/11/25 03:38:47;;;;;;;23.17;13.50;;;;;;;0.99;95.60;101034.72;5036390;28;20032;-69
2021/11/25 03:41:13;;;;;;;24.83;14.38;;;;;;;1.00;95.53;101032.06;5031658;28;20025;-69
2021/11/25 03:43:39;;;;;;;31.27;17.40;;;;;;;1.03;95.56;101023.41;5040677;28;20067;-69
2021/11/25 03:46:05;;;;;;;28.25;16.38;;;;;;;1.09;94.79;101013.66;5032274;28;20041;-70
2021/11/25 03:48:31;;;;;;;27.35;15.70;;;;;;;1.04;94.69;101020.75;5022377;28;20030;-69
2021/11/25 03:50:58;;;;;;;28.98;15.43;;;;;;;1.03;94.61;101020.84;5034537;28;20040;-69
2021/11/25 03:53:24;;;;;;;30.35;15.73;;;;;;;1.03;94.76;101013.19;5032111;28;20025;-70
2021/11/25 03:55:51;;;;;;;29.52;16.25;;;;;;;1.05;94.99;101011.34;5005905;28;20463;-69
2021/11/25 03:58:17;;;;;;;27.70;15.27;;;;;;;1.04;95.09;101000.31;5012552;28;20091;-69
2021/11/25 04:00:43;;;;;;;28.65;15.63;;;;;;;1.03;95.44;101010.63;5029518;28;20064;-69
2021/11/25 04:03:08;;;;;;;28.52;15.07;;;;;;;1.01;94.84;101007.34;5030131;28;20495;-69
2021/11/25 04:05:34;;;;;;;25.77;14.48;;;;;;;1.02;95.58;101011.53;5036181;28;20041;-69
2021/11/25 04:08:00;;;;;;;24.88;15.15;;;;;;;1.03;94.86;101005.50;5027123;28;20515;-69
2021/11/25 04:10:25;;;;;;;28.17;15.10;;;;;;;1.03;95.07;101000.41;5030705;28;20026;-69
2021/11/25 04:12:51;;;;;;;25.52;14.82;;;;;;;0.99;95.17;100999.75;5030202;28;20447;-69
2021/11/25 04:15:18;;;;;;;28.27;15.32;;;;;;;0.99;94.76;101004.88;5034039;28;20038;-69
2021/11/25 04:17:45;;;;;;;26.38;14.32;;;;;;;1.00;95.12;101013.34;5037514;28;20037;-69
2021/11/25 04:20:11;;;;;;;27.73;16.38;;;;;;;0.99;95.30;100999.75;5038175;28;20050;-69
2021/11/25 04:22:38;;;;;;;31.10;15.98;;;;;;;1.01;95.44;101004.78;5033835;28;20025;-69
2021/11/25 04:25:05;;;;;;;29.27;16.38;;;;;;;1.00;95.28;100995.47;5036035;28;20440;-69
2021/11/25 04:27:30;;;;;;;28.02;15.93;;;;;;;0.98;94.80;101000.69;5028443;28;20033;-69
2021/11/25 04:35:35;;;;;;;29.00;15.10;;;;;;;0.92;94.71;100999.31;5029561;28;20533;-69
2021/11/25 04:38:15;;;;;;;28.15;15.02;;;;;;;0.90;94.86;100993.44;5027984;28;20040;-69
2021/11/25 04:40:49;;;;;;;23.27;14.27;;;;;;;0.89;94.80;100986.72;5026209;28;20491;-70
2021/11/25 04:43:17;;;;;;;29.30;15.57;;;;;;;0.88;94.56;100989.34;5028184;28;20139;-70
2021/11/25 04:45:45;;;;;;;26.55;14.48;;;;;;;0.86;94.85;100989.44;5015350;28;20047;-70
2021/11/25 04:48:12;;;;;;;26.25;15.82;;;;;;;0.85;94.73;100979.31;5030444;28;20029;-69
2021/11/25 04:50:39;;;;;;;29.30;16.52;;;;;;;0.80;94.15;100977.03;5029625;28;21391;-69
2021/11/25 04:53:06;;;;;;;29.00;16.60;;;;;;;0.77;94.02;100978.03;5027952;28;20467;-69
2021/11/25 04:55:31;;;;;;;31.15;16.52;;;;;;;0.76;94.28;100980.66;5032875;28;20022;-69
2021/11/25 04:57:57;;;;;;;30.50;17.20;;;;;;;0.74;93.96;100979.94;5029345;28;20494;-69
2021/11/25 05:00:23;;;;;;;32.72;17.27;;;;;;;0.68;93.93;100985.38;5035711;28;20036;-69
2021/11/25 05:02:48;;;;;;;33.20;17.00;;;;;;;0.64;93.68;100999.22;5031775;28;20040;-69
2021/11/25 05:05:15;;;;;;;26.58;16.55;;;;;;;0.54;92.97;100996.38;5024805;28;20547;-69
2021/11/25 05:07:41;;;;;;;29.25;16.83;;;;;;;0.49;93.24;100995.81;5026748;28;20241;-69
2021/11/25 05:10:08;;;;;;;31.48;16.27;;;;;;;0.48;93.34;101000.09;5032101;28;20411;-69
2021/11/25 05:12:34;;;;;;;31.30;16.75;;;;;;;0.47;93.73;100995.06;5035256;28;20037;-69
2021/11/25 05:14:59;;;;;;;29.30;16.77;;;;;;;0.47;93.54;101001.03;5030418;28;20033;-70
2021/11/25 05:17:26;;;;;;;30.63;17.05;;;;;;;0.43;93.37;101006.38;5013235;28;20032;-70
2021/11/25 05:19:51;;;;;;;34.17;17.70;;;;;;;0.41;93.33;101006.44;5017512;28;20030;-69
2021/11/25 05:22:17;;;;;;;32.13;17.27;;;;;;;0.39;93.18;101001.41;5032184;28;20043;-69
2021/11/25 05:24:43;;;;;;;35.92;18.02;;;;;;;0.37;92.69;100998.13;5028790;28;20029;-69
2021/11/25 05:27:09;;;;;;;33.40;18.65;;;;;;;0.37;91.91;100995.56;5028584;28;20083;-69
2021/11/25 05:29:36;;;;;;;35.75;18.20;;;;;;;0.34;90.34;100987.28;5035399;28;20034;-69
2021/11/25 05:32:04;;;;;;;28.02;16.90;;;;;;;0.15;90.60;100979.81;5033446;28;20025;-70
2021/11/25 05:34:29;;;;;;;35.53;17.85;;;;;;;0.06;90.99;100982.88;5029428;28;20033;-69
2021/11/25 05:36:55;;;;;;;32.20;18.02;;;;;;;0.02;91.65;100987.34;5029484;28;20025;-69
2021/11/25 05:39:21;;;;;;;34.40;18.35;;;;;;;-0.01;91.72;100993.41;5032308;28;20087;-69
2021/11/25 05:41:46;;;;;;;41.65;20.23;;;;;;;-0.01;91.85;100984.94;5030807;28;20037;-69
2021/11/25 05:44:12;;;;;;;38.72;19.88;;;;;;;-0.02;92.01;100983.28;5026663;28;20033;-69
2021/11/25 05:46:37;;;;;;;36.55;20.05;;;;;;;-0.03;92.36;100984.22;5030000;28;20375;-69
2021/11/25 05:49:03;;;;;;;38.33;20.10;;;;;;;-0.04;92.47;100983.41;5031983;28;20053;-69
2021/11/25 05:51:28;;;;;;;43.67;23.95;;;;;;;-0.06;92.55;100981.81;5030564;28;20503;-70
2021/11/25 05:53:55;;;;;;;53.22;30.02;;;;;;;-0.07;92.67;100982.72;5031232;28;21252;-69
2021/11/25 05:56:20;;;;;;;48.50;26.77;;;;;;;-0.07;92.56;100980.19;5028996;28;20040;-69
2021/11/25 05:58:46;;;;;;;49.50;24.05;;;;;;;-0.08;92.26;100970.88;5037198;28;20022;-69
2021/11/25 06:01:11;;;;;;;36.92;20.75;;;;;;;-0.11;92.23;100971.88;5003062;28;20510;-69
2021/11/25 06:03:37;;;;;;;39.40;21.42;;;;;;;-0.14;92.20;100966.94;5032698;28;20045;-69
2021/11/25 06:06:02;;;;;;;36.15;20.55;;;;;;;-0.15;92.06;100969.56;5025440;28;20033;-69
2021/11/25 06:08:28;;;;;;;41.67;20.15;;;;;;;-0.18;92.13;100962.09;5029579;28;20041;-69
2021/11/25 06:10:55;;;;;;;42.00;19.75;;;;;;;-0.25;92.19;100954.75;5028017;28;20037;-69
2021/11/25 06:13:20;;;;;;;38.97;19.45;;;;;;;-0.25;91.78;100949.66;5037226;28;20108;-69
2021/11/25 06:15:47;;;;;;;34.47;19.15;;;;;;;-0.31;91.58;100960.19;5013581;28;20120;-69
2021/11/25 06:18:14;;;;;;;38.20;19.40;;;;;;;-0.36;91.52;100951.97;5041099;28;20038;-70
2021/11/25 06:20:40;;;;;;;34.72;18.55;;;;;;;-0.43;91.82;100951.47;5034305;28;20476;-69
2021/11/25 06:23:06;;;;;;;40.35;20.60;;;;;;;-0.46;92.14;100945.72;5029309;28;20045;-69
2021/11/25 06:25:32;;;;;;;39.35;21.90;;;;;;;-0.50;92.22;100946.78;5028247;28;20037;-69
2021/11/25 06:27:58;;;;;;;41.28;21.23;;;;;;;-0.55;92.46;100949.56;5028523;28;20044;-69
2021/11/25 06:30:23;;;;;;;42.38;20.00;;;;;;;-0.57;92.38;100948.81;5032903;28;20026;-69
2021/11/25 06:32:50;;;;;;;37.08;21.27;;;;;;;-0.57;93.05;100961.56;5030680;28;20419;-69
2021/11/25 06:35:17;;;;;;;41.92;20.83;;;;;;;-0.56;92.70;100970.88;5027155;28;20033;-69
2021/11/25 06:37:49;;;;;;;43.22;22.33;;;;;;;-0.56;93.09;100981.06;5029604;28;20029;-69
2021/11/25 06:40:17;;;;;;;45.05;22.52;;;;;;;-0.57;92.96;100984.50;5025825;28;20044;-69
2021/11/25 06:42:43;;;;;;;40.22;21.63;;;;;;;-0.60;92.46;100984.66;5027507;28;20036;-69
2021/11/25 06:45:10;;;;;;;48.08;22.15;;;;;;;-0.62;92.18;100987.28;5025343;28;21477;-69
2021/11/25 06:47:36;;;;;;;48.40;22.70;;;;;;;-0.63;93.08;101000.91;5034429;28;20491;-69
2021/11/25 06:50:08;;;;;;;43.78;21.38;;;;;;;-0.59;93.05;101009.22;5030266;28;20033;-69
2021/11/25 06:52:34;;;;;;;51.00;23.15;;;;;;;-0.55;92.50;101002.25;5033118;28;20029;-69
2021/11/25 06:55:00;;;;;;;43.83;23.58;;;;;;;-0.59;92.51;101004.94;5034391;28;20040;-69
2021/11/25 06:57:25;;;;;;;53.38;24.42;;;;;;;-0.67;93.31;101004.53;5018874;28;20025;-69
2021/11/25 06:59:51;;;;;;;52.50;25.17;;;;;;;-0.67;93.94;100999.44;5035178;28;20028;-68
2021/11/25 07:02:16;;;;;;;48.60;24.35;;;;;;;-0.64;93.58;101003.53;5037650;28;20382;-69
2021/11/25 07:04:42;;;;;;;57.85;24.98;;;;;;;-0.65;93.72;101007.81;5037424;28;20110;-69
2021/11/25 07:07:07;;;;;;;49.08;25.73;;;;;;;-0.70;93.73;101003.84;5036485;28;20045;-69
2021/11/25 07:09:33;;;;;;;54.22;26.02;;;;;;;-0.65;93.49;101007.81;5032917;28;20033;-69
2021/11/25 07:11:59;;;;;;;54.22;26.52;;;;;;;-0.69;93.90;101003.78;5029345;28;20593;-69
2021/11/25 07:14:24;;;;;;;51.13;25.73;;;;;;;-0.75;93.53;101001.56;5013857;28;20037;-68
2021/11/25 07:16:50;;;;;;;52.00;25.77;;;;;;;-0.79;94.40;101000.88;5015066;28;20033;-69
2021/11/25 07:19:15;;;;;;;52.38;26.40;;;;;;;-0.79;94.02;101002.63;5036190;28;20021;-69
2021/11/25 07:21:41;;;;;;;48.00;24.75;;;;;;;-0.81;94.33;101020.50;5015291;28;20079;-69
2021/11/25 07:24:06;;;;;;;45.97;24.25;;;;;;;-0.80;94.55;101016.25;5031937;28;20627;-69
2021/11/25 07:26:32;;;;;;;47.55;25.65;;;;;;;-0.79;94.69;101023.81;5032674;28;20029;-68
2021/11/25 07:28:57;;;;;;;53.33;25.92;;;;;;;-0.79;94.67;101023.81;5014244;28;20542;-69
2021/11/25 07:31:28;;;;;;;52.53;25.42;;;;;;;-0.75;94.88;101023.63;5040051;28;20068;-69
2021/11/25 07:33:54;;;;;;;52.08;24.60;;;;;;;-0.75;94.54;101023.63;5028599;28;20411;-69
2021/11/25 07:36:20;;;;;;;49.58;25.13;;;;;;;-0.75;94.20;101019.38;5030488;28;20522;-69
2021/11/25 07:38:46;;;;;;;50.33;24.30;;;;;;;-0.77;94.01;101015.25;5030226;28;20033;-69
2021/11/25 07:41:11;;;;;;;46.53;24.15;;;;;;;-0.83;93.67;101019.78;5025308;28;20498;-69
2021/11/25 07:43:37;;;;;;;47.97;24.33;;;;;;;-0.83;93.70;101014.69;5041400;28;20033;-68
2021/11/25 07:46:03;;;;;;;49.10;23.52;;;;;;;-0.79;93.76;101021.25;5036962;28;20017;-69
2021/11/25 07:48:29;;;;;;;49.53;23.30;;;;;;;-0.79;94.01;101020.44;5032175;28;20454;-69
2021/11/25 07:50:54;;;;;;;42.42;22.95;;;;;;;-0.77;93.97;101007.59;5036788;28;20108;-69
2021/11/25 07:53:20;;;;;;;45.55;21.92;;;;;;;-0.75;93.61;101005.81;5032875;28;20120;-69
2021/11/25 07:55:45;;;;;;;45.20;23.63;;;;;;;-0.73;93.44;101009.13;5031097;28;20056;-69
2021/11/25 07:58:11;;;;;;;45.20;23.23;;;;;;;-0.70;93.52;101009.75;5038578;28;20033;-68
2021/11/25 08:00:37;;;;;;;50.28;24.20;;;;;;;-0.63;93.59;101008.56;5017981;28;20414;-69
2021/11/25 08:03:02;;;;;;;48.47;25.15;;;;;;;-0.64;93.33;101004.38;5031964;28;20033;-69
2021/11/25 08:05:28;;;;;;;64.55;29.50;;;;;;;-0.63;92.80;101008.56;5031740;28;20479;-69
2021/11/25 08:07:56;;;;;;;86.93;31.65;;;;;;;-0.63;92.96;101005.19;5032146;28;20041;-69
2021/11/25 08:10:23;;;;;;;67.22;29.05;;;;;;;-0.60;93.02;101005.03;5029329;28;20076;-68
2021/11/25 08:12:49;;;;;;;55.58;26.67;;;;;;;-0.56;93.20;101006.53;5029326;28;20396;-68
2021/11/25 08:15:14;;;;;;;47.42;24.33;;;;;;;-0.51;93.30;100999.47;5025575;28;20029;-69
2021/11/25 08:17:40;;;;;;;47.97;24.35;;;;;;;-0.40;93.47;101002.28;5033093;28;20108;-68
2021/11/25 08:20:07;;;;;;;50.08;25.73;;;;;;;-0.29;92.54;100994.06;5034268;28;20028;-69
2021/11/25 08:22:33;;;;;;;53.85;26.77;;;;;;;-0.23;92.66;100992.91;5030025;28;20290;-69
2021/11/25 08:24:58;;;;;;;59.83;27.48;;;;;;;-0.21;92.61;100989.41;5029705;28;20041;-69
2021/11/25 08:27:25;;;;;;;50.47;25.98;;;;;;;-0.20;92.64;100987.66;5028004;28;20053;-69
2021/11/25 08:29:51;;;;;;;52.38;26.98;;;;;;;-0.16;93.21;100978.94;5033582;28;20035;-69
2021/11/25 08:32:17;;;;;;;49.67;26.42;;;;;;;-0.10;93.65;100968.41;5027962;28;20021;-69
2021/11/25 08:34:42;;;;;;;46.75;25.73;;;;;;;-0.02;93.58;100966.28;5012828;28;20029;-69
2021/11/25 08:37:08;;;;;;;57.03;27.30;;;;;;;0.08;93.99;100946.19;5033316;28;20033;-69
2021/11/25 08:39:37;;;;;;;57.60;29.33;;;;;;;0.18;94.02;100936.31;5031460;28;20476;-69
2021/11/25 08:42:06;;;;;;;62.00;31.08;;;;;;;0.30;93.89;100945.00;5001497;28;20033;-69
2021/11/25 08:44:32;;;;;;;67.20;30.52;;;;;;;0.46;93.05;100939.84;5031255;28;20037;-69
2021/11/25 08:46:59;;;;;;;68.95;33.15;;;;;;;0.69;93.48;100935.97;5029608;28;20028;-69
2021/11/25 08:49:25;;;;;;;71.07;34.38;;;;;;;0.65;93.75;100940.44;5031168;28;20391;-69
2021/11/25 08:51:51;;;;;;;78.82;37.25;;;;;;;0.60;93.59;100931.41;5029472;28;20026;-69
2021/11/25 08:54:17;;;;;;;72.07;36.35;;;;;;;0.55;93.66;100929.13;5030313;28;20381;-69
2021/11/25 08:56:42;;;;;;;75.60;36.50;;;;;;;0.53;94.08;100944.53;5027019;28;20048;-69
2021/11/25 08:59:08;;;;;;;77.55;37.35;;;;;;;0.58;94.35;100942.53;5024097;28;20487;-70
2021/11/25 09:01:33;;;;;;;79.35;38.33;;;;;;;0.65;94.47;100942.19;5025341;28;20049;-69
2021/11/25 09:03:59;;;;;;;85.35;38.35;;;;;;;0.78;94.71;100946.47;5027533;28;20029;-69
2021/11/25 09:06:25;;;;;;;79.55;39.35;;;;;;;0.81;94.89;100942.94;5026383;28;20029;-69
2021/11/25 09:08:50;;;;;;;75.30;37.83;;;;;;;0.79;94.83;100947.28;5027235;28;20033;-69
2021/11/25 09:11:16;;;;;;;82.47;39.00;;;;;;;0.86;95.29;100943.47;5023896;28;20036;-70
2021/11/25 09:13:42;;;;;;;79.38;36.28;;;;;;;0.95;95.14;100937.81;5024541;28;20079;-70
2021/11/25 09:16:08;;;;;;;80.97;37.47;;;;;;;1.12;94.73;100938.56;5021852;28;20037;-69
2021/11/25 09:18:33;;;;;;;76.00;36.38;;;;;;;1.02;94.13;100940.00;5027393;28;20550;-69
2021/11/25 09:21:00;;;;;;;78.90;36.78;;;;;;;0.93;94.54;100944.75;5013076;28;20021;-70
2021/11/25 09:23:26;;;;;;;74.78;35.53;;;;;;;0.93;94.60;100949.06;5027903;28;20048;-69
2021/11/25 09:25:52;;;;;;;77.45;37.53;;;;;;;0.97;94.87;100953.06;5025443;28;20029;-70
2021/11/25 09:28:21;;;;;;;76.88;38.17;;;;;;;1.03;94.86;100954.44;5029491;28;20392;-70
2021/11/25 09:30:48;;;;;;;68.45;35.70;;;;;;;1.09;95.10;100954.06;5024423;28;20044;-69
2021/11/25 09:33:13;;;;;;;69.30;36.42;;;;;;;1.08;94.85;100957.56;5026661;28;20032;-69
2021/11/25 09:35:40;;;;;;;71.85;34.63;;;;;;;1.20;94.60;100968.75;5025319;28;20017;-69
2021/11/25 09:38:07;;;;;;;71.45;35.92;;;;;;;1.27;93.81;100972.59;5029713;28;20041;-69
2021/11/25 09:40:33;;;;;;;74.70;37.72;;;;;;;1.24;94.36;100978.69;5023435;28;20185;-70
2021/11/25 09:43:05;;;;;;;73.82;36.28;;;;;;;1.31;94.20;100985.09;5006640;28;20025;-69
2021/11/25 09:45:34;;;;;;;69.07;36.05;;;;;;;1.24;94.35;100994.03;5030189;28;20045;-70
2021/11/25 09:48:02;;;;;;;71.57;36.35;;;;;;;1.32;94.90;100984.19;5031084;28;20029;-69
2021/11/25 09:50:30;;;;;;;77.20;38.88;;;;;;;1.30;95.17;100985.19;5026751;28;20167;-70
2021/11/25 09:52:58;;;;;;;76.93;38.53;;;;;;;1.49;95.47;100992.59;5025969;28;20022;-69
2021/11/25 09:55:24;;;;;;;78.60;36.83;;;;;;;1.49;94.93;100992.59;5028790;28;20056;-70
2021/11/25 09:57:51;;;;;;;66.28;34.70;;;;;;;1.44;95.00;101004.81;5028815;28;20072;-70
2021/11/25 10:00:18;;;;;;;67.03;35.25;;;;;;;1.46;95.20;101001.25;5026126;28;20033;-70
2021/11/25 10:02:44;;;;;;;64.78;33.42;;;;;;;1.47;95.70;100999.50;5009421;28;20026;-69
2021/11/25 10:05:10;;;;;;;65.38;33.63;;;;;;;1.62;94.73;100987.53;5020864;28;20029;-69
2021/11/25 10:07:37;;;;;;;64.47;32.80;;;;;;;1.58;94.23;100989.44;5027708;28;20086;-69
2021/11/25 10:10:35;;;;;;;64.68;33.65;;;;;;;1.53;94.30;100999.16;5010793;28;20029;-69
2021/11/25 10:13:14;;;;;;;67.75;34.80;;;;;;;1.54;95.11;100993.13;4991198;28;20049;-69
2021/11/25 10:15:42;;;;;;;78.55;35.58;;;;;;;1.56;95.42;100993.84;5023750;28;20578;-69
2021/11/25 10:18:10;;;;;;;80.53;35.13;;;;;;;1.60;95.48;100987.66;5026381;28;20182;-70
2021/11/25 10:20:38;;;;;;;70.60;36.65;;;;;;;1.64;95.69;100983.16;5029319;28;20123;-69
2021/11/25 10:23:04;;;;;;;71.53;36.83;;;;;;;1.68;95.79;100985.44;5027998;28;20365;-70
2021/11/25 10:25:50;;;;;;;74.90;38.65;;;;;;;1.85;95.42;100976.72;5025717;28;20478;-69
2021/11/25 10:28:24;;;;;;;77.75;38.40;;;;;;;2.11;94.49;100976.81;5021108;28;20036;-69
2021/11/25 10:30:52;;;;;;;84.63;38.90;;;;;;;2.12;93.73;100988.72;5025148;28;20518;-69
2021/11/25 10:33:28;;;;;;;77.97;39.58;;;;;;;2.07;93.16;100976.22;5026274;28;20045;-70
2021/11/25 10:41:22;;;;;;;84.70;43.70;;;;;;;2.31;91.52;100981.50;5026218;28;20029;-70
2021/11/25 10:44:27;;;;;;;85.15;43.08;;;;;;;2.32;91.42;100972.91;5029833;28;20445;-70
2021/11/25 10:46:55;;;;;;;80.15;41.63;;;;;;;2.25;92.14;100975.97;4967071;28;20043;-69
2021/11/25 10:49:41;;;;;;;86.53;42.63;;;;;;;2.18;92.14;100967.84;5031787;28;20052;-70
2021/11/25 10:52:25;;;;;;;78.63;39.45;;;;;;;2.20;92.06;100967.75;5025602;28;20115;-70
2021/11/25 10:54:54;;;;;;;79.85;39.03;;;;;;;2.25;91.91;100958.84;5035733;28;20040;-70
2021/11/25 10:57:22;;;;;;;74.00;37.33;;;;;;;2.24;90.56;100956.41;5014240;28;20056;-70
2021/11/25 10:59:51;;;;;;;66.10;36.90;;;;;;;2.32;91.08;100956.75;5035679;28;20017;-70
2021/11/25 11:02:29;;;;;;;74.03;38.03;;;;;;;2.36;90.98;100947.13;5028566;28;20428;-70
2021/11/25 11:05:10;;;;;;;75.60;38.70;;;;;;;2.40;91.38;100951.13;5026316;28;20043;-70
2021/11/25 11:07:38;;;;;;;66.15;35.05;;;;;;;2.48;91.85;100948.88;5042397;28;20518;-70
2021/11/25 11:10:23;;;;;;;64.85;35.00;;;;;;;2.67;90.39;100951.06;5017163;28;20426;-70
2021/11/25 11:20:28;;;;;;;69.32;35.42;;;;;;;2.73;89.38;100958.31;5037210;28;20191;-70
2021/11/25 11:23:02;;;;;;;61.58;33.47;;;;;;;2.66;89.55;100959.69;5020773;28;20121;-70
2021/11/25 11:25:30;;;;;;;70.45;35.05;;;;;;;2.69;89.39;100959.44;5027483;28;20029;-70
2021/11/25 11:27:57;;;;;;;64.93;34.17;;;;;;;2.65;89.34;100950.34;5028589;28;20036;-70
2021/11/25 11:30:25;;;;;;;67.10;32.97;;;;;;;2.73;88.38;100946.38;5029938;28;20029;-70
2021/11/25 11:32:51;;;;;;;67.18;33.20;;;;;;;2.65;88.21;100947.78;5029457;28;20037;-70
2021/11/25 11:35:22;;;;;;;64.40;32.75;;;;;;;2.70;88.34;100938.88;5024963;28;20140;-70